createdAt,value
2018-03-17T00:02:24.738Z,19.40
2018-03-17T00:04:55.270Z,19.37
2018-03-17T00:07:24.805Z,20.43
2018-03-17T00:09:55.646Z,19.77
2018-03-17T00:12:29.797Z,19.60
2018-03-17T00:14:59.301Z,18.90
2018-03-17T00:17:32.478Z,19.93
2018-03-17T00:20:03.190Z,17.27
2018-03-17T00:22:34.047Z,17.23
2018-03-17T00:25:04.675Z,19.73
2018-03-17T00:27:35.411Z,16.37
2018-03-17T00:30:05.736Z,17.63
2018-03-17T00:32:36.517Z,16.20
2018-03-17T00:35:07.884Z,15.93
2018-03-17T00:37:37.864Z,15.83
2018-03-17T00:40:07.903Z,15.10
2018-03-17T00:42:38.206Z,15.77
2018-03-17T00:45:07.708Z,15.93
2018-03-17T00:47:37.219Z,14.13
2018-03-17T00:50:28.153Z,16.23
2018-03-17T00:52:58.190Z,15.17
2018-03-17T00:55:27.840Z,16.77
2018-03-17T00:57:58.646Z,14.77
2018-03-17T01:00:28.865Z,15.73
2018-03-17T01:03:00.315Z,15.67
2018-03-17T01:05:34.423Z,14.20
2018-03-17T01:08:11.260Z,13.47
2018-03-17T01:10:41.043Z,14.33
2018-03-17T01:13:12.888Z,12.17
2018-03-17T01:15:43.857Z,12.67
2018-03-17T01:18:13.842Z,13.07
2018-03-17T01:21:20.102Z,14.40
2018-03-17T01:23:49.610Z,12.63
2018-03-17T01:26:19.130Z,12.33
2018-03-17T01:28:48.645Z,12.57
2018-03-17T01:31:22.722Z,13.93
2018-03-17T01:34:01.352Z,12.90
2018-03-17T01:36:32.669Z,12.70
2018-03-17T01:39:07.374Z,12.80
2018-03-17T01:41:39.188Z,11.17
2018-03-17T01:44:09.267Z,11.13
2018-03-17T01:46:40.537Z,11.23
2018-03-17T01:49:10.447Z,10.83
2018-03-17T01:51:40.476Z,10.93
2018-03-17T01:54:16.326Z,11.43
2018-03-17T01:56:49.514Z,13.03
2018-03-17T01:59:22.995Z,12.67
2018-03-17T02:01:52.565Z,13.50
2018-03-17T02:04:26.553Z,13.60
2018-03-17T02:07:00.307Z,15.23
2018-03-17T02:09:35.360Z,14.63
2018-03-17T02:12:07.919Z,14.97
2018-03-17T02:14:46.883Z,15.00
2018-03-17T02:17:21.590Z,15.43
2018-03-17T02:19:55.949Z,18.20
2018-03-17T02:22:30.864Z,18.30
2018-03-17T02:25:05.910Z,17.03
2018-03-17T02:27:40.475Z,17.57
2018-03-17T02:30:17.313Z,18.33
2018-03-17T02:32:46.898Z,18.23
2018-03-17T02:35:17.701Z,19.90
2018-03-17T02:37:50.346Z,19.97
2018-03-17T02:40:20.441Z,19.73
2018-03-17T02:42:50.972Z,20.43
2018-03-17T02:45:20.478Z,19.90
2018-03-17T02:47:52.263Z,19.10
2018-03-17T02:50:21.761Z,20.53
2018-03-17T02:52:51.296Z,22.30
2018-03-17T02:55:21.373Z,23.70
2018-03-17T02:57:50.868Z,23.13
2018-03-17T03:00:20.918Z,26.20
2018-03-17T03:02:50.422Z,28.10
2018-03-17T03:05:23.287Z,26.43
2018-03-17T03:07:57.617Z,29.17
2018-03-17T03:10:27.378Z,30.03
2018-03-17T03:12:57.619Z,28.87
2018-03-17T03:15:27.118Z,29.80
2018-03-17T03:17:56.619Z,28.57
2018-03-17T03:20:29.265Z,31.80
2018-03-17T03:22:59.851Z,29.47
2018-03-17T03:25:31.246Z,30.40
2018-03-17T03:28:07.166Z,30.93
2018-03-17T03:30:37.134Z,29.33
2018-03-17T03:33:07.088Z,31.93
2018-03-17T03:35:37.050Z,30.10
2018-03-17T03:38:06.557Z,27.50
2018-03-17T03:40:36.290Z,27.37
2018-03-17T03:43:06.663Z,28.10
2018-03-17T03:45:42.504Z,25.17
2018-03-17T03:48:14.874Z,27.43
2018-03-17T03:51:20.436Z,23.47
2018-03-17T03:53:55.309Z,23.70
2018-03-17T03:56:27.920Z,22.43
2018-03-17T03:59:02.724Z,23.83
2018-03-17T04:01:36.342Z,22.47
2018-03-17T04:04:14.590Z,22.40
2018-03-17T04:06:47.505Z,21.20
2018-03-17T04:09:22.411Z,19.47
2018-03-17T04:11:54.788Z,20.77
2018-03-17T04:14:28.234Z,20.37
2018-03-17T04:16:59.012Z,19.00
2018-03-17T04:19:29.796Z,19.43
2018-03-17T04:21:59.625Z,17.60
2018-03-17T04:24:29.437Z,18.27
2018-03-17T04:26:59.316Z,17.10
2018-03-17T04:29:28.823Z,17.83
2018-03-17T04:32:01.781Z,16.17
2018-03-17T04:34:34.013Z,17.77
2018-03-17T04:37:04.589Z,16.97
2018-03-17T04:39:34.107Z,17.93
2018-03-17T04:42:05.441Z,18.43
2018-03-17T04:44:35.203Z,17.43
2018-03-17T04:47:04.695Z,18.17
2018-03-17T04:49:37.666Z,17.97
2018-03-17T04:52:10.902Z,17.33
2018-03-17T04:54:46.357Z,15.57
2018-03-17T04:57:21.643Z,17.47
2018-03-17T04:59:55.041Z,17.53
2018-03-17T05:02:29.858Z,17.43
2018-03-17T05:05:00.189Z,17.20
2018-03-17T05:07:29.979Z,17.13
2018-03-17T05:10:03.041Z,16.77
2018-03-17T05:12:32.757Z,16.33
2018-03-17T05:15:02.333Z,17.70
2018-03-17T05:17:32.980Z,17.63
2018-03-17T05:20:06.202Z,17.63
2018-03-17T05:22:37.178Z,15.97
2018-03-17T05:25:06.682Z,17.20
2018-03-17T05:27:37.836Z,16.70
2018-03-17T05:30:07.427Z,15.97
2018-03-17T05:32:37.447Z,16.27
2018-03-17T05:35:07.359Z,14.87
2018-03-17T05:37:40.283Z,14.83
2018-03-17T05:40:10.892Z,14.77
2018-03-17T05:42:40.684Z,13.97
2018-03-17T05:45:10.186Z,13.17
2018-03-17T05:47:40.033Z,13.93
2018-03-17T05:50:09.547Z,13.30
2018-03-17T05:52:40.430Z,13.97
2018-03-17T05:55:14.878Z,13.43
2018-03-17T05:57:45.730Z,13.23
2018-03-17T06:00:20.608Z,13.13
2018-03-17T06:03:00.244Z,12.97
2018-03-17T06:05:38.552Z,12.30
2018-03-17T06:08:08.068Z,11.83
2018-03-17T06:10:42.530Z,11.80
2018-03-17T06:13:14.968Z,12.03
2018-03-17T06:15:45.032Z,10.53
2018-03-17T06:18:16.213Z,11.10
2018-03-17T06:20:46.269Z,10.67
2018-03-17T06:23:42.977Z,10.03
2018-03-17T06:26:12.481Z,9.70
2018-03-17T06:28:43.330Z,8.67
2018-03-17T06:31:19.396Z,9.97
2018-03-17T06:33:51.202Z,9.80
2018-03-17T06:36:29.379Z,9.43
2018-03-17T06:39:04.756Z,9.67
2018-03-17T06:41:37.991Z,9.93
2018-03-17T06:44:09.866Z,11.20
2018-03-17T06:46:40.350Z,10.50
2018-03-17T06:49:10.222Z,9.87
2018-03-17T06:51:39.953Z,11.10
2018-03-17T06:54:10.103Z,11.47
2018-03-17T06:56:40.164Z,10.07
2018-03-17T06:59:13.352Z,11.17
2018-03-17T07:01:51.643Z,12.00
2018-03-17T07:04:23.995Z,12.17
2018-03-17T07:06:55.131Z,12.03
2018-03-17T07:09:31.518Z,12.40
2018-03-17T07:12:01.586Z,13.00
2018-03-17T07:14:31.112Z,13.97
2018-03-17T07:17:04.185Z,13.93
2018-03-17T07:19:33.890Z,13.47
2018-03-17T07:22:04.334Z,12.60
2018-03-17T07:24:34.780Z,12.83
2018-03-17T07:27:09.534Z,12.07
2018-03-17T07:29:39.035Z,11.23
2018-03-17T07:32:08.628Z,13.17
2018-03-17T07:34:38.309Z,12.97
2018-03-17T07:37:07.823Z,12.77
2018-03-17T07:39:40.434Z,12.50
2018-03-17T07:42:09.938Z,11.80
2018-03-17T07:44:40.223Z,11.87
2018-03-17T07:47:14.504Z,12.00
2018-03-17T07:49:45.484Z,11.40
2018-03-17T07:52:22.878Z,11.60
2018-03-17T07:54:53.852Z,11.17
2018-03-17T07:57:26.588Z,10.70
2018-03-17T07:59:56.104Z,10.47
2018-03-17T08:02:25.885Z,10.43
2018-03-17T08:04:56.040Z,11.33
2018-03-17T08:07:25.541Z,11.10
2018-03-17T08:09:55.840Z,10.30
2018-03-17T08:12:25.346Z,10.07
2018-03-17T08:14:54.885Z,10.17
2018-03-17T08:17:26.764Z,10.53
2018-03-17T08:19:56.281Z,10.93
2018-03-17T08:22:27.057Z,10.30
2018-03-17T08:24:58.790Z,9.60
2018-03-17T08:27:29.542Z,9.80
2018-03-17T08:29:59.926Z,10.33
2018-03-17T08:32:31.312Z,10.37
2018-03-17T08:35:03.384Z,10.67
2018-03-17T08:37:34.185Z,10.07
2018-03-17T08:40:04.147Z,10.77
2018-03-17T08:42:35.507Z,10.23
2018-03-17T08:45:06.071Z,10.63
2018-03-17T08:47:35.610Z,11.17
2018-03-17T08:50:08.886Z,10.27
2018-03-17T08:52:41.602Z,10.47
2018-03-17T08:55:28.419Z,11.00
2018-03-17T08:57:58.214Z,11.60
2018-03-17T09:00:29.210Z,11.43
2018-03-17T09:03:03.747Z,11.47
2018-03-17T09:05:40.718Z,12.93
2018-03-17T09:08:14.730Z,12.30
2018-03-17T09:11:05.251Z,11.60
2018-03-17T09:13:36.027Z,12.03
2018-03-17T09:16:07.558Z,12.23
2018-03-17T09:18:37.059Z,13.00
2018-03-17T09:21:11.018Z,11.70
2018-03-17T09:23:48.230Z,13.00
2018-03-17T09:29:29.972Z,12.30
2018-03-17T09:32:05.844Z,13.13
2018-03-17T09:34:36.784Z,12.27
2018-03-17T09:37:13.150Z,14.50
2018-03-17T09:39:49.226Z,14.57
2018-03-17T09:42:21.194Z,14.87
2018-03-17T09:45:00.531Z,13.87
2018-03-17T09:47:30.775Z,15.27
2018-03-17T09:50:10.359Z,15.80
2018-03-17T09:52:41.031Z,17.57
2018-03-17T09:55:35.085Z,15.30
2018-03-17T09:58:04.624Z,16.67
2018-03-17T10:00:34.122Z,15.43
2018-03-17T10:03:14.435Z,17.60
2018-03-17T10:05:44.941Z,15.87
2018-03-17T10:08:16.032Z,15.90
2018-03-17T10:11:16.590Z,17.07
2018-03-17T10:13:58.461Z,16.07
2018-03-17T10:16:29.572Z,17.07
2018-03-17T10:19:08.143Z,16.60
2018-03-17T10:21:39.453Z,14.57
2018-03-17T10:24:11.934Z,15.07
2018-03-17T10:29:55.786Z,14.00
2018-03-17T10:32:32.621Z,13.97
2018-03-17T10:35:07.383Z,12.93
2018-03-17T10:37:43.486Z,13.53
2018-03-17T10:40:40.331Z,13.93
2018-03-17T10:43:16.945Z,12.70
2018-03-17T10:45:56.488Z,10.73
2018-03-17T10:48:26.416Z,12.33
2018-03-17T10:50:57.734Z,12.83
2018-03-17T10:53:34.399Z,13.07
2018-03-17T10:56:10.339Z,13.00
2018-03-17T10:58:43.621Z,12.03
2018-03-17T11:01:20.830Z,12.20
2018-03-17T11:03:54.523Z,11.87
2018-03-17T11:06:29.873Z,12.50
2018-03-17T11:09:04.632Z,11.37
2018-03-17T11:15:19.999Z,13.50
2018-03-17T11:17:51.906Z,11.20
2018-03-17T11:20:28.164Z,11.97
2018-03-17T11:23:13.415Z,11.20
2018-03-17T11:25:43.202Z,11.03
2018-03-17T11:28:16.906Z,11.80
2018-03-17T11:30:46.779Z,10.33
2018-03-17T11:33:19.735Z,10.60
2018-03-17T11:35:56.753Z,9.50
2018-03-17T11:38:32.225Z,10.13
2018-03-17T11:41:08.398Z,9.27
2018-03-17T11:43:40.158Z,10.80
2018-03-17T11:46:15.570Z,9.37
2018-03-17T11:48:51.269Z,10.03
2018-03-17T11:51:23.918Z,10.23
2018-03-17T11:53:56.313Z,10.93
2018-03-17T11:56:34.392Z,11.67
2018-03-17T11:59:06.636Z,10.10
2018-03-17T12:01:43.298Z,9.47
2018-03-17T12:04:16.406Z,9.97
2018-03-17T12:06:48.377Z,9.43
2018-03-17T12:09:18.747Z,10.27
2018-03-17T12:11:49.278Z,9.63
2018-03-17T12:14:18.814Z,9.53
2018-03-17T12:16:51.035Z,10.33
2018-03-17T12:19:21.454Z,9.83
2018-03-17T12:21:52.996Z,9.73
2018-03-17T12:24:26.904Z,10.17
2018-03-17T12:27:03.131Z,10.80
2018-03-17T12:29:35.761Z,10.00
2018-03-17T12:32:08.098Z,10.20
2018-03-17T12:34:37.615Z,10.10
2018-03-17T12:37:08.428Z,10.33
2018-03-17T12:39:38.262Z,10.97
2018-03-17T12:45:17.691Z,9.60
2018-03-17T12:47:47.297Z,10.70
2018-03-17T12:50:17.398Z,12.43
2018-03-17T12:52:51.229Z,11.77
2018-03-17T12:55:22.656Z,11.80
2018-03-17T12:57:59.816Z,9.70
2018-03-17T13:00:37.774Z,11.33
2018-03-17T13:03:09.618Z,10.07
2018-03-17T13:05:41.816Z,11.77
2018-03-17T13:08:13.113Z,9.93
2018-03-17T13:10:43.944Z,12.13
2018-03-17T13:13:13.981Z,18.30
2018-03-17T13:15:43.698Z,9.83
2018-03-17T13:18:13.211Z,11.80
2018-03-17T13:20:45.723Z,11.27
2018-03-17T13:23:16.865Z,11.03
2018-03-17T13:25:52.356Z,10.87
2018-03-17T13:28:29.513Z,13.83
2018-03-17T13:31:05.804Z,12.67
2018-03-17T13:33:39.230Z,12.83
2018-03-17T13:36:15.003Z,12.63
2018-03-17T13:38:49.232Z,11.27
2018-03-17T13:41:19.831Z,11.13
2018-03-17T13:43:50.242Z,11.63
2018-03-17T13:46:27.563Z,10.80
2018-03-17T13:48:58.324Z,10.70
2018-03-17T13:51:28.211Z,11.10
2018-03-17T13:53:57.723Z,10.23
2018-03-17T13:56:27.245Z,10.23
2018-03-17T13:58:59.826Z,10.80
2018-03-17T14:01:30.543Z,9.13
2018-03-17T14:04:04.098Z,10.60
2018-03-17T14:06:42.111Z,10.70
2018-03-17T14:09:14.644Z,12.37
2018-03-17T14:11:51.905Z,11.00
2018-03-17T14:17:33.038Z,10.60
2018-03-17T14:20:06.301Z,10.00
2018-03-17T14:22:40.378Z,9.57
2018-03-17T14:25:15.559Z,10.93
2018-03-17T14:27:49.886Z,10.70
2018-03-17T14:30:23.318Z,10.40
2018-03-17T14:32:53.200Z,9.90
2018-03-17T14:35:23.006Z,9.37
2018-03-17T14:37:52.562Z,9.77
2018-03-17T14:40:23.358Z,9.80
2018-03-17T14:42:53.262Z,10.07
2018-03-17T14:45:23.489Z,9.90
2018-03-17T14:47:57.980Z,9.90
2018-03-17T14:50:29.233Z,10.10
2018-03-17T14:53:00.800Z,9.33
2018-03-17T14:55:32.322Z,9.60
2018-03-17T14:58:02.014Z,12.03
2018-03-17T15:00:32.155Z,12.00
2018-03-17T15:03:01.681Z,10.80
2018-03-17T15:05:31.222Z,10.13
2018-03-17T15:08:08.706Z,11.27
2018-03-17T15:10:40.142Z,10.03
2018-03-17T15:13:12.750Z,9.97
2018-03-17T15:15:44.939Z,10.27
2018-03-17T15:18:14.853Z,11.70
2018-03-17T15:20:44.351Z,11.20
2018-03-17T15:23:13.858Z,10.90
2018-03-17T15:25:43.363Z,9.90
2018-03-17T15:28:13.689Z,11.10
2018-03-17T15:31:21.453Z,10.30
2018-03-17T15:33:52.458Z,9.93
2018-03-17T15:36:26.396Z,9.60
2018-03-17T15:39:04.104Z,10.10
2018-03-17T15:44:12.742Z,10.93
2018-03-17T15:46:51.752Z,10.83
2018-03-17T15:49:22.360Z,13.60
2018-03-17T15:51:51.908Z,11.50
2018-03-17T15:54:22.410Z,13.00
2018-03-17T15:56:54.526Z,11.17
2018-03-17T15:59:24.335Z,13.70
2018-03-17T16:01:54.816Z,12.47
2018-03-17T16:04:24.341Z,12.17
2018-03-17T16:06:56.022Z,11.07
2018-03-17T16:09:27.116Z,11.00
2018-03-17T16:12:04.131Z,11.07
2018-03-17T16:14:36.213Z,10.63
2018-03-17T16:17:27.715Z,11.40
2018-03-17T16:19:57.234Z,11.17
2018-03-17T16:22:27.282Z,10.30
2018-03-17T16:24:57.298Z,10.00
2018-03-17T16:27:27.081Z,10.37
2018-03-17T16:29:57.656Z,10.40
2018-03-17T16:32:27.678Z,9.17
2018-03-17T16:34:57.199Z,10.37
2018-03-17T16:37:28.291Z,9.77
2018-03-17T16:39:58.249Z,9.70
2018-03-17T16:42:32.313Z,9.53
2018-03-17T16:45:03.234Z,10.20
2018-03-17T16:47:37.391Z,9.93
2018-03-17T16:50:16.170Z,12.13
2018-03-17T16:52:50.948Z,9.97
2018-03-17T16:55:25.027Z,10.73
2018-03-17T16:57:58.352Z,10.43
2018-03-17T17:00:48.674Z,11.80
2018-03-17T17:03:18.245Z,11.30
2018-03-17T17:05:51.134Z,11.90
2018-03-17T17:08:22.868Z,10.80
2018-03-17T17:10:52.423Z,12.27
2018-03-17T17:13:31.094Z,11.20
2018-03-17T17:16:23.238Z,10.27
2018-03-17T17:18:52.846Z,11.53
2018-03-17T17:21:22.339Z,11.27
2018-03-17T17:23:53.413Z,10.37
2018-03-17T17:26:25.069Z,10.60
2018-03-17T17:28:59.286Z,12.47
2018-03-17T17:31:33.091Z,10.90
2018-03-17T17:34:10.154Z,10.80
2018-03-17T17:36:39.805Z,10.20
2018-03-17T17:39:09.491Z,9.77
2018-03-17T17:41:39.687Z,10.97
2018-03-17T17:44:09.197Z,10.40
2018-03-17T17:46:40.715Z,9.60
2018-03-17T17:49:10.216Z,10.40
2018-03-17T17:51:44.510Z,10.87
2018-03-17T17:54:16.900Z,10.03
2018-03-17T17:56:50.240Z,10.17
2018-03-17T17:59:19.742Z,10.83
2018-03-17T18:01:49.619Z,10.10
2018-03-17T18:04:25.652Z,10.30
2018-03-17T18:06:56.891Z,13.87
2018-03-17T18:09:26.644Z,38.63
2018-03-17T18:11:56.717Z,9.90
2018-03-17T18:14:26.400Z,10.40
2018-03-17T18:17:18.458Z,12.23
2018-03-17T18:19:49.578Z,11.63
2018-03-17T18:22:19.083Z,11.30
2018-03-17T18:24:49.214Z,11.17
2018-03-17T18:27:19.431Z,10.77
2018-03-17T18:29:51.544Z,11.27
2018-03-17T18:32:27.143Z,12.40
2018-03-17T18:35:00.515Z,11.97
2018-03-17T18:37:31.027Z,11.33
2018-03-17T18:40:01.077Z,12.50
2018-03-17T18:42:30.609Z,12.03
2018-03-17T18:45:00.113Z,11.67
2018-03-17T18:47:30.289Z,13.17
2018-03-17T18:49:59.860Z,12.73
2018-03-17T18:52:33.075Z,13.70
2018-03-17T18:55:05.222Z,15.70
2018-03-17T18:57:34.727Z,13.73
2018-03-17T19:00:04.239Z,13.70
2018-03-17T19:02:34.087Z,12.03
2018-03-17T19:05:03.610Z,13.00
2018-03-17T19:07:35.470Z,12.93
2018-03-17T19:10:06.961Z,11.20
2018-03-17T19:12:38.385Z,12.97
2018-03-17T19:15:08.172Z,12.30
2018-03-17T19:17:38.527Z,12.43
2018-03-17T19:20:08.039Z,11.57
2018-03-17T19:22:37.836Z,13.87
2018-03-17T19:25:08.122Z,12.93
2018-03-17T19:27:37.633Z,13.93
2018-03-17T19:30:07.633Z,13.13
2018-03-17T19:32:37.164Z,14.27
2018-03-17T19:35:06.664Z,11.47
2018-03-17T19:37:36.188Z,15.87
2018-03-17T19:40:05.898Z,12.97
2018-03-17T19:42:38.530Z,12.60
2018-03-17T19:45:08.732Z,13.40
2018-03-17T19:47:38.247Z,12.90
2018-03-17T19:50:08.671Z,12.83
2018-03-17T19:52:38.770Z,15.37
2018-03-17T19:55:13.803Z,13.27
2018-03-17T19:57:43.874Z,14.70
2018-03-17T20:00:14.965Z,17.13
2018-03-17T20:03:14.955Z,13.67
2018-03-17T20:05:45.639Z,14.53
2018-03-17T20:08:15.278Z,16.47
2018-03-17T20:10:45.519Z,13.13
2018-03-17T20:13:15.051Z,15.50
2018-03-17T20:15:44.554Z,14.97
2018-03-17T20:18:17.231Z,15.13
2018-03-17T20:20:50.807Z,15.63
2018-03-17T20:23:23.340Z,15.47
2018-03-17T20:25:55.544Z,13.93
2018-03-17T20:28:32.900Z,16.23
2018-03-17T20:31:08.964Z,17.43
2018-03-17T20:33:46.216Z,14.50
2018-03-17T20:36:16.922Z,15.87
2018-03-17T20:38:52.264Z,14.70
2018-03-17T20:41:30.901Z,15.00
2018-03-17T20:44:05.817Z,13.57
2018-03-17T20:46:39.042Z,15.27
2018-03-17T20:49:32.510Z,16.50
2018-03-17T20:52:04.678Z,16.83
2018-03-17T20:54:35.003Z,15.33
2018-03-17T20:57:09.493Z,16.00
2018-03-17T20:59:39.054Z,16.63
2018-03-17T21:02:10.562Z,16.33
2018-03-17T21:04:43.765Z,16.10
2018-03-17T21:07:18.575Z,16.20
2018-03-17T21:09:55.499Z,16.80
2018-03-17T21:12:27.043Z,15.93
2018-03-17T21:15:02.893Z,15.43
2018-03-17T21:17:38.057Z,17.23
2018-03-17T21:20:13.176Z,25.30
2018-03-17T21:22:48.754Z,16.67
2018-03-17T21:25:21.413Z,16.17
2018-03-17T21:27:59.310Z,15.97
2018-03-17T21:30:29.752Z,15.73
2018-03-17T21:33:01.413Z,15.27
2018-03-17T21:35:33.941Z,16.67
2018-03-17T21:38:05.761Z,16.00
2018-03-17T21:40:35.435Z,17.77
2018-03-17T21:43:07.494Z,17.37
2018-03-17T21:45:38.446Z,16.30
2018-03-17T21:48:08.235Z,15.50
2018-03-17T21:50:42.558Z,15.67
2018-03-17T21:53:12.063Z,16.80
2018-03-17T21:55:42.232Z,16.17
2018-03-17T21:58:12.571Z,15.67
2018-03-17T22:00:43.289Z,17.67
2018-03-17T22:03:14.852Z,15.87
2018-03-17T22:06:23.335Z,16.13
2018-03-17T22:08:52.875Z,16.37
2018-03-17T22:11:23.355Z,16.30
2018-03-17T22:13:55.317Z,15.83
2018-03-17T22:16:26.246Z,15.43
2018-03-17T22:18:57.624Z,15.63
2018-03-17T22:21:51.657Z,15.73
2018-03-17T22:24:21.178Z,15.87
2018-03-17T22:26:50.676Z,15.87
2018-03-17T22:29:27.074Z,15.50
2018-03-17T22:31:57.482Z,14.87
2018-03-17T22:34:32.312Z,14.63
2018-03-17T22:37:25.337Z,15.57
2018-03-17T22:39:55.111Z,16.13
2018-03-17T22:42:24.648Z,15.67
2018-03-17T22:44:54.930Z,15.80
2018-03-17T22:47:27.246Z,16.27
2018-03-17T22:50:03.848Z,16.10
2018-03-17T22:52:55.088Z,15.97
2018-03-17T22:55:24.961Z,16.37
2018-03-17T22:57:54.469Z,16.50
2018-03-17T23:00:24.431Z,16.13
2018-03-17T23:02:55.996Z,16.03
2018-03-17T23:06:04.123Z,16.07
2018-03-17T23:08:35.874Z,16.60
2018-03-17T23:11:05.401Z,17.13
2018-03-17T23:13:36.927Z,16.40
2018-03-17T23:16:06.451Z,15.07
2018-03-17T23:18:35.976Z,16.03
2018-03-17T23:21:41.730Z,16.47
2018-03-17T23:24:11.804Z,15.77
2018-03-17T23:26:42.790Z,16.10
2018-03-17T23:29:13.554Z,16.47
2018-03-17T23:31:43.365Z,16.23
2018-03-17T23:34:17.109Z,16.00
2018-03-17T23:36:47.464Z,15.80
2018-03-17T23:39:16.971Z,16.30
2018-03-17T23:41:46.485Z,15.57
2018-03-17T23:44:16.002Z,16.63
2018-03-17T23:46:53.110Z,16.03
2018-03-17T23:49:26.358Z,16.60
2018-03-17T23:52:03.191Z,17.20
2018-03-17T23:54:36.907Z,18.07
2018-03-17T23:57:12.082Z,18.10
2018-03-17T23:59:45.279Z,17.17
